Time;durP1;ratioP1;P1;durP2;ratioP2;P2;SDS_P1;SDS_P2;PMS_P1;PMS_P2;Temp;Humidity;BMP_temperature;BMP_pressure;BME280_temperature;BME280_humidity;BME280_pressure;Samples;Min_cycle;Max_cycle;Signal;HPM_P1;HPM_P2
2023/08/24 00:04:40;;;;;;;10.00;4.90;;;;;;;18.11;92.79;100724.88;215551;1292;139326;-85
2023/08/24 00:09:40;;;;;;;8.70;5.20;;;;;;;18.08;92.70;100719.67;215127;1289;142332;-86
2023/08/24 00:14:42;;;;;;;11.60;5.10;;;;;;;18.04;92.77;100720.92;215492;1292;138972;-85
2023/08/24 00:19:42;;;;;;;9.50;4.80;;;;;;;18.00;92.80;100721.79;215124;1291;139761;-85
2023/08/24 00:24:42;;;;;;;9.50;4.80;;;;;;;17.96;93.10;100725.82;215639;1289;138553;-85
2023/08/24 00:29:43;;;;;;;9.30;4.70;;;;;;;17.91;93.35;100723.74;215192;1289;141519;-85
2023/08/24 00:34:43;;;;;;;10.80;4.90;;;;;;;17.87;93.34;100726.67;215613;1291;139327;-84
2023/08/24 00:39:43;;;;;;;9.80;4.90;;;;;;;17.82;93.47;100729.43;215037;1293;141442;-85
2023/08/24 00:44:44;;;;;;;11.00;5.50;;;;;;;17.78;94.05;100729.02;215394;1289;139536;-85
2023/08/24 00:49:44;;;;;;;11.40;5.50;;;;;;;17.74;94.43;100736.70;215216;1290;142116;-85
2023/08/24 00:54:45;;;;;;;10.60;5.50;;;;;;;17.70;94.90;100737.80;215653;1291;138769;-85
2023/08/24 00:59:46;;;;;;;9.50;5.60;;;;;;;17.67;94.64;100738.94;215215;1289;141385;-86
2023/08/24 01:04:47;;;;;;;9.80;5.10;;;;;;;17.64;94.56;100737.30;215612;1292;138879;-85
2023/08/24 01:09:48;;;;;;;9.60;5.30;;;;;;;17.61;94.80;100734.58;214878;1291;140760;-85
2023/08/24 01:15:13;;;;;;;8.40;5.30;;;;;;;17.58;94.96;100733.58;215630;1293;138773;-85
2023/08/24 01:20:15;;;;;;;10.90;5.70;;;;;;;17.53;95.32;100735.38;214999;1289;142564;-86
2023/08/24 01:25:37;;;;;;;9.10;5.40;;;;;;;17.48;95.37;100740.29;215675;1290;96366;-85
2023/08/24 01:30:38;;;;;;;8.30;5.10;;;;;;;17.43;95.94;100740.19;214915;1289;141874;-85
2023/08/24 01:35:38;;;;;;;10.80;5.10;;;;;;;17.37;96.26;100737.38;216123;1289;138847;-86
2023/08/24 01:40:44;;;;;;;9.20;5.30;;;;;;;17.32;97.19;100740.78;215021;1295;140802;-85
2023/08/24 01:45:46;;;;;;;13.40;7.30;;;;;;;17.26;97.50;100740.28;215514;1289;139317;-85
2023/08/24 01:50:47;;;;;;;12.20;6.10;;;;;;;17.22;97.61;100740.81;214943;1288;143051;-86
2023/08/24 03:22:35;;;;;;;10.40;5.90;;;;;;;16.06;100.00;100723.46;214989;1289;140590;-86
2023/08/24 03:27:35;;;;;;;8.60;5.40;;;;;;;16.00;99.99;100726.73;215510;1289;139575;-87
2023/08/24 03:32:36;;;;;;;9.40;5.70;;;;;;;15.94;100.00;100723.92;215232;1289;140681;-87
2023/08/24 03:37:36;;;;;;;11.50;6.20;;;;;;;15.89;100.00;100725.77;215461;1289;139425;-85
2023/08/24 03:42:36;;;;;;;10.20;6.00;;;;;;;15.82;100.00;100727.23;214900;1288;141658;-85
2023/08/24 03:47:39;;;;;;;12.30;5.60;;;;;;;15.75;100.00;100728.40;215475;1288;139771;-85
2023/08/24 03:52:40;;;;;;;9.30;5.70;;;;;;;15.70;100.00;100734.92;214915;1289;140566;-85
2023/08/24 03:57:40;;;;;;;9.40;5.70;;;;;;;15.65;100.00;100742.16;215486;1289;138839;-85
2023/08/24 04:02:45;;;;;;;10.60;5.90;;;;;;;15.58;100.00;100740.45;215061;1289;139728;-85
2023/08/24 04:07:45;;;;;;;10.50;5.40;;;;;;;15.52;100.00;100744.91;215459;1292;106731;-87
2023/08/24 04:12:46;;;;;;;8.30;4.70;;;;;;;15.48;100.00;100737.09;214931;1292;140662;-85
2023/08/24 04:17:46;;;;;;;10.00;5.70;;;;;;;15.49;100.00;100742.69;215166;1289;138971;-85
2023/08/24 04:22:47;;;;;;;9.50;5.10;;;;;;;15.50;100.00;100745.15;215138;1289;142391;-85
2023/08/24 04:27:47;;;;;;;9.80;5.40;;;;;;;15.53;100.00;100751.95;215562;1292;139952;-85
2023/08/24 04:32:48;;;;;;;9.90;6.20;;;;;;;15.55;100.00;100755.36;215009;1289;139947;-84
2023/08/24 04:37:48;;;;;;;13.40;6.50;;;;;;;15.60;100.00;100758.04;215614;1292;97889;-86
2023/08/24 04:42:49;;;;;;;12.20;6.90;;;;;;;15.66;100.00;100754.60;214866;1294;139934;-86
2023/08/24 04:47:51;;;;;;;15.00;7.10;;;;;;;15.74;100.00;100756.06;215545;1289;139002;-86
2023/08/24 04:52:52;;;;;;;11.60;7.30;;;;;;;15.84;100.00;100760.86;215073;1289;140920;-86
2023/08/24 04:57:52;;;;;;;13.40;7.90;;;;;;;15.93;100.00;100757.40;215843;1290;139656;-86
2023/08/24 05:02:53;;;;;;;14.90;9.00;;;;;;;16.04;100.00;100757.34;214942;1292;140775;-86
2023/08/24 05:07:54;;;;;;;15.20;8.70;;;;;;;16.16;100.00;100757.83;215732;1289;97893;-86
2023/08/24 05:12:55;;;;;;;13.30;8.70;;;;;;;16.28;100.00;100752.49;215157;1292;141169;-86
2023/08/24 05:17:56;;;;;;;13.10;8.90;;;;;;;16.41;100.00;100750.27;215477;1289;139142;-86
2023/08/24 05:22:56;;;;;;;15.40;9.20;;;;;;;16.55;100.00;100747.40;214861;1288;141346;-86
2023/08/24 05:27:59;;;;;;;18.50;9.80;;;;;;;16.65;100.00;100747.88;215320;1291;139139;-86
2023/08/24 05:33:00;;;;;;;18.90;9.30;;;;;;;16.75;100.00;100750.48;215231;1289;141581;-86
2023/08/24 05:38:00;;;;;;;14.70;9.40;;;;;;;16.84;100.00;100748.51;215543;1289;97971;-87
2023/08/24 05:43:01;;;;;;;16.00;10.30;;;;;;;16.94;100.00;100750.48;214951;1290;139779;-85
2023/08/24 05:48:01;;;;;;;19.60;10.60;;;;;;;17.11;100.00;100752.38;215396;1288;140271;-87
2023/08/24 05:53:02;;;;;;;16.60;9.90;;;;;;;17.38;100.00;100750.66;214981;1289;153989;-86
2023/08/24 05:58:02;;;;;;;19.60;11.00;;;;;;;17.67;100.00;100755.24;215386;1293;139243;-86
2023/08/24 06:03:03;;;;;;;16.10;9.50;;;;;;;17.86;100.00;100758.82;215070;1289;142333;-84
2023/08/24 06:08:04;;;;;;;14.20;9.50;;;;;;;18.02;100.00;100762.90;215652;1289;98009;-85
2023/08/24 06:13:05;;;;;;;14.30;8.00;;;;;;;18.20;100.00;100760.17;214588;1289;140281;-85
2023/08/24 06:18:05;;;;;;;14.40;7.80;;;;;;;18.39;100.00;100765.16;215306;1292;139701;-86
2023/08/24 06:23:07;;;;;;;12.60;7.70;;;;;;;18.61;100.00;100762.34;214873;1290;143535;-87
2023/08/24 06:28:09;;;;;;;13.80;7.20;;;;;;;18.88;100.00;100759.09;215485;1293;139788;-86
2023/08/24 06:33:10;;;;;;;12.80;5.50;;;;;;;19.13;100.00;100754.18;214645;1289;141711;-86
2023/08/24 06:38:18;;;;;;;11.70;5.10;;;;;;;19.44;100.00;100748.42;215296;1289;97855;-86
2023/08/24 06:43:18;;;;;;;16.30;5.30;;;;;;;19.74;99.00;100748.93;214630;1288;140776;-85
2023/08/24 06:48:19;;;;;;;28.70;5.90;;;;;;;19.97;97.43;100745.05;215260;1289;139423;-86
2023/08/24 06:53:19;;;;;;;20.70;6.40;;;;;;;20.20;95.76;100743.63;214677;1289;141109;-86
2023/08/24 06:58:20;;;;;;;11.00;4.40;;;;;;;20.42;95.82;100740.45;215195;1289;139405;-86
2023/08/24 07:03:20;;;;;;;9.50;3.60;;;;;;;20.64;91.43;100746.45;214778;1289;140419;-86
2023/08/24 07:08:23;;;;;;;10.30;3.30;;;;;;;20.85;89.99;100754.48;215635;1288;97836;-87
2023/08/24 07:13:24;;;;;;;5.80;2.50;;;;;;;21.08;88.05;100761.23;214767;1288;141270;-87
2023/08/24 07:18:25;;;;;;;10.60;4.00;;;;;;;21.23;84.95;100763.81;215374;1289;139056;-86
2023/08/24 07:23:25;;;;;;;9.40;3.20;;;;;;;21.33;82.53;100770.58;214886;1294;140627;-86
2023/08/24 07:28:26;;;;;;;7.70;3.00;;;;;;;21.47;81.33;100763.54;215427;1292;140237;-85
2023/08/24 07:33:28;;;;;;;7.70;2.90;;;;;;;21.68;80.42;100772.15;215174;1289;141518;-85
2023/08/24 07:38:28;;;;;;;5.60;2.30;;;;;;;21.89;77.62;100772.59;215429;1291;98497;-85
2023/08/24 07:43:29;;;;;;;6.70;2.20;;;;;;;22.13;76.58;100772.65;214849;1289;140395;-84
2023/08/24 07:48:29;;;;;;;4.80;2.10;;;;;;;22.36;74.28;100770.09;215489;1288;138634;-84
2023/08/24 07:53:32;;;;;;;8.20;2.90;;;;;;;22.66;75.53;100766.25;214933;1292;142234;-84
2023/08/24 07:58:33;;;;;;;7.50;2.00;;;;;;;23.04;72.74;100770.90;215285;1289;139116;-84
2023/08/24 08:03:35;;;;;;;8.70;2.50;;;;;;;23.34;71.27;100773.16;215134;1289;140323;-84
2023/08/24 08:08:36;;;;;;;5.70;2.20;;;;;;;23.69;71.55;100778.43;215276;1290;108320;-83
2023/08/24 08:13:36;;;;;;;6.30;2.40;;;;;;;24.00;69.38;100779.98;214975;1289;140360;-85
2023/08/24 08:18:37;;;;;;;6.60;2.40;;;;;;;24.18;67.29;100782.46;215517;1289;138506;-85
2023/08/24 08:23:40;;;;;;;5.70;2.20;;;;;;;24.39;67.23;100779.55;214852;1289;141166;-85
2023/08/24 08:28:40;;;;;;;6.10;2.20;;;;;;;24.77;69.39;100777.36;215235;1289;138108;-84
2023/08/24 08:33:40;;;;;;;5.40;2.20;;;;;;;25.26;66.57;100774.69;215373;1289;139869;-84
2023/08/24 08:38:41;;;;;;;4.60;1.80;;;;;;;25.79;66.27;100781.45;215776;1289;98473;-85
2023/08/24 08:43:42;;;;;;;7.20;2.40;;;;;;;26.49;66.64;100791.59;214855;1289;141147;-84
2023/08/24 08:48:44;;;;;;;6.90;2.40;;;;;;;27.10;63.74;100788.05;215640;1288;138030;-85
2023/08/24 08:53:45;;;;;;;4.00;1.80;;;;;;;27.69;62.51;100786.59;215049;1294;141346;-85
2023/08/24 08:58:47;;;;;;;5.60;1.80;;;;;;;28.26;58.80;100789.17;215678;1288;138758;-84
2023/08/24 09:03:48;;;;;;;7.70;2.30;;;;;;;28.67;57.61;100790.97;215614;1289;140572;-85
2023/08/24 09:08:50;;;;;;;4.90;2.10;;;;;;;29.28;58.95;100787.88;215395;1289;97932;-84
2023/08/24 09:13:50;;;;;;;8.80;1.80;;;;;;;30.17;57.78;100787.84;214946;1288;139257;-85
2023/08/24 09:18:51;;;;;;;2.40;1.50;;;;;;;30.82;54.45;100783.73;215592;1289;138300;-84
2023/08/24 09:23:55;;;;;;;7.50;1.80;;;;;;;31.33;51.33;100775.11;214890;1290;139730;-85
2023/08/24 09:28:56;;;;;;;;;;;;;;;31.15;49.38;100773.67;215292;1292;138524;-84
2023/08/24 09:34:00;;;;;;;2.30;1.40;;;;;;;31.37;49.73;100762.27;214919;1292;125878;-86
2023/08/24 09:39:00;;;;;;;5.90;1.80;;;;;;;32.03;48.40;100760.28;214840;1292;140599;-85
2023/08/24 09:44:04;;;;;;;4.00;1.90;;;;;;;32.73;49.82;100761.45;215498;1293;99973;-86
2023/08/24 09:49:08;;;;;;;2.70;1.60;;;;;;;33.26;46.56;100758.85;216279;1290;141393;-85
2023/08/24 09:54:10;;;;;;;4.80;2.40;;;;;;;33.29;43.69;100742.39;215190;1289;138054;-85
2023/08/24 09:59:13;;;;;;;7.30;2.30;;;;;;;32.93;42.68;100732.95;215970;1289;140458;-84
2023/08/24 10:04:29;;;;;;;4.60;1.80;;;;;;;32.67;43.04;100723.33;215518;1291;138199;-84
2023/08/24 10:09:42;;;;;;;5.40;1.80;;;;;;;33.13;45.40;100714.27;214603;1291;139761;-84
2023/08/24 10:14:55;;;;;;;5.70;1.80;;;;;;;33.80;44.35;100712.92;215547;1290;103190;-84
2023/08/24 10:19:58;;;;;;;6.40;2.00;;;;;;;34.28;43.16;100718.41;214777;1291;140508;-84
2023/08/24 10:24:58;;;;;;;6.50;2.20;;;;;;;34.71;42.09;100716.69;215232;1291;138322;-86
2023/08/24 10:29:59;;;;;;;4.20;1.90;;;;;;;34.72;40.72;100702.21;214912;1289;139667;-84
2023/08/24 10:34:59;;;;;;;6.80;2.10;;;;;;;34.70;39.90;100701.71;215461;1289;138548;-85
2023/08/24 10:40:00;;;;;;;5.70;1.60;;;;;;;34.78;38.77;100697.90;214714;1291;140161;-87
2023/08/24 10:45:02;;;;;;;3.40;1.50;;;;;;;34.59;38.80;100693.48;215260;1292;143051;-83
2023/08/24 10:50:02;;;;;;;5.20;1.90;;;;;;;34.74;38.74;100685.00;215021;1289;140646;-85
2023/08/24 10:55:04;;;;;;;4.50;1.90;;;;;;;34.62;37.81;100679.76;215378;1292;137981;-84
2023/08/24 11:00:10;;;;;;;5.20;1.70;;;;;;;34.62;38.46;100674.11;214747;1289;306898;-84
2023/08/24 11:05:19;;;;;;;4.70;1.90;;;;;;;34.57;38.50;100664.04;215438;1294;138082;-84
2023/08/24 11:10:22;;;;;;;7.00;2.00;;;;;;;34.85;39.26;100652.87;214912;1294;139659;-83
2023/08/24 11:15:56;;;;;;;6.20;2.00;;;;;;;34.87;38.79;100646.67;215444;1290;138012;-83
2023/08/24 11:21:07;;;;;;;4.20;2.00;;;;;;;34.86;39.71;100650.48;214482;1292;140830;-87
2023/08/24 11:26:11;;;;;;;7.10;2.30;;;;;;;34.74;40.22;100651.80;215349;1289;99869;-84
2023/08/24 11:31:11;;;;;;;7.00;2.20;;;;;;;34.38;38.32;100647.38;214935;1292;140672;-84
2023/08/24 11:36:13;;;;;;;5.70;2.40;;;;;;;34.10;40.05;100637.37;215625;1289;138184;-84
2023/08/24 11:41:19;;;;;;;6.60;2.80;;;;;;;34.16;39.48;100633.77;214866;1294;139670;-86
2023/08/24 11:46:19;;;;;;;9.30;3.20;;;;;;;33.95;38.88;100634.39;215455;1290;138734;-84
2023/08/24 11:51:23;;;;;;;6.10;2.30;;;;;;;33.94;39.20;100635.55;215315;1289;140681;-82
2023/08/24 11:56:23;;;;;;;4.40;2.10;;;;;;;34.07;39.65;100636.11;215685;1289;97961;-83
2023/08/24 12:01:27;;;;;;;6.80;2.50;;;;;;;33.99;41.02;100637.17;215109;1289;140161;-84
2023/08/24 12:06:28;;;;;;;8.30;3.20;;;;;;;34.38;41.68;100634.23;215531;1289;138038;-83
2023/08/24 12:11:28;;;;;;;9.20;3.00;;;;;;;34.55;40.43;100628.84;215215;1292;140163;-84
2023/08/24 12:16:34;;;;;;;5.30;2.50;;;;;;;34.35;38.18;100625.05;215568;1290;138214;-85
2023/08/24 12:21:35;;;;;;;7.70;2.50;;;;;;;34.14;38.71;100615.52;215041;1289;139662;-86
2023/08/24 12:26:36;;;;;;;5.20;2.40;;;;;;;33.94;37.97;100613.27;215861;1289;98489;-85
2023/08/24 12:31:36;;;;;;;9.90;2.80;;;;;;;33.51;37.59;100612.27;215055;1289;139233;-85
2023/08/24 12:36:39;;;;;;;6.40;2.20;;;;;;;33.16;39.56;100604.20;215521;1289;137815;-85
2023/08/24 12:41:39;;;;;;;8.10;3.70;;;;;;;33.18;39.88;100594.38;215106;1289;140302;-86
2023/08/24 12:46:40;;;;;;;7.00;2.60;;;;;;;33.02;39.22;100585.61;215543;1289;138408;-87
2023/08/24 12:51:41;;;;;;;6.50;2.50;;;;;;;32.85;39.00;100581.20;214996;1288;141732;-84
2023/08/24 12:56:42;;;;;;;10.20;2.60;;;;;;;32.70;40.40;100565.96;215815;1289;98303;-85
2023/08/24 13:01:42;;;;;;;4.80;2.40;;;;;;;32.54;40.12;100560.09;215045;1289;139603;-86
2023/08/24 13:06:42;;;;;;;9.50;2.60;;;;;;;32.47;41.22;100561.88;215393;1289;137994;-85
2023/08/24 13:11:43;;;;;;;7.40;2.50;;;;;;;32.41;41.27;100554.23;215028;1289;140640;-86
2023/08/24 13:16:43;;;;;;;8.10;2.20;;;;;;;32.42;40.03;100559.21;215544;1289;138259;-88
2023/08/24 13:21:44;;;;;;;7.40;2.30;;;;;;;32.30;39.86;100551.59;215068;1291;140846;-86
2023/08/24 13:26:44;;;;;;;9.50;2.30;;;;;;;32.12;41.74;100563.90;215703;1291;97841;-87
2023/08/24 13:31:45;;;;;;;7.50;2.30;;;;;;;31.87;39.18;100559.14;214750;1290;139897;-87
2023/08/24 13:36:45;;;;;;;5.50;2.60;;;;;;;31.66;40.49;100559.61;215475;1292;138632;-90
2023/08/24 13:41:45;;;;;;;4.10;2.20;;;;;;;31.63;41.81;100555.15;214414;1292;139715;-85
2023/08/24 13:46:46;;;;;;;4.50;2.00;;;;;;;31.68;44.44;100549.46;215076;1291;138010;-86
2023/08/24 13:51:46;;;;;;;7.40;2.70;;;;;;;31.66;42.97;100542.89;214473;1289;140083;-86
2023/08/24 13:56:49;;;;;;;4.80;2.60;;;;;;;31.40;41.62;100533.44;215145;1292;97861;-86
2023/08/24 14:01:49;;;;;;;5.20;2.40;;;;;;;31.26;42.79;100522.13;214714;1292;139253;-86
2023/08/24 14:06:49;;;;;;;7.80;3.20;;;;;;;31.12;42.42;100508.70;216874;1291;138988;-86
2023/08/24 14:11:50;;;;;;;8.20;2.90;;;;;;;30.63;42.15;100501.10;215532;1291;139426;-85
2023/08/24 14:16:55;;;;;;;8.10;2.80;;;;;;;30.39;44.74;100493.33;215007;1291;138995;-86
2023/08/24 14:21:58;;;;;;;3.40;2.20;;;;;;;30.30;43.94;100486.12;214512;1292;141748;-86
2023/08/24 14:26:58;;;;;;;9.20;3.10;;;;;;;30.09;44.34;100483.24;215220;1291;138141;-86
2023/08/24 14:31:58;;;;;;;11.60;3.30;;;;;;;29.87;45.58;100481.66;214733;1294;140485;-86
2023/08/24 14:37:00;;;;;;;6.10;2.70;;;;;;;29.84;45.51;100475.15;214946;1292;140157;-86
2023/08/24 14:42:02;;;;;;;8.50;2.20;;;;;;;29.87;46.84;100473.41;214607;1293;140290;-86
2023/08/24 14:47:03;;;;;;;5.30;2.60;;;;;;;29.82;47.48;100464.66;214997;1291;138971;-85
2023/08/24 14:52:04;;;;;;;6.70;2.60;;;;;;;29.75;46.59;100463.19;214752;1291;139834;-85
2023/08/24 14:57:06;;;;;;;7.50;2.60;;;;;;;29.54;45.75;100466.03;215385;1291;138817;-85
2023/08/24 15:02:06;;;;;;;7.60;2.90;;;;;;;29.29;46.66;100470.18;214620;1291;141233;-84
2023/08/24 15:07:07;;;;;;;7.80;2.80;;;;;;;29.16;46.16;100475.29;215149;1292;138061;-86
2023/08/24 15:12:07;;;;;;;6.60;2.70;;;;;;;28.98;45.80;100472.23;214740;1291;140431;-85
2023/08/24 15:17:08;;;;;;;7.20;2.50;;;;;;;28.75;48.53;100473.59;215238;1289;138297;-86
2023/08/24 15:22:08;;;;;;;5.10;2.60;;;;;;;28.69;48.40;100466.22;214985;1289;140441;-85
2023/08/24 15:27:09;;;;;;;6.10;2.50;;;;;;;28.53;47.80;100459.05;215555;1289;137938;-86
2023/08/24 15:32:09;;;;;;;6.40;2.30;;;;;;;28.35;48.39;100449.93;215117;1289;140569;-85
2023/08/24 15:37:09;;;;;;;6.70;2.60;;;;;;;28.22;47.81;100441.17;215248;1289;140108;-85
2023/08/24 15:42:12;;;;;;;5.90;2.60;;;;;;;27.96;48.02;100426.30;215005;1289;141331;-86
2023/08/24 15:47:13;;;;;;;7.10;2.60;;;;;;;27.62;50.05;100415.49;215517;1288;138573;-86
2023/08/24 15:52:14;;;;;;;6.60;2.50;;;;;;;27.52;49.15;100417.48;215068;1289;140247;-86
2023/08/24 15:57:14;;;;;;;7.00;3.00;;;;;;;27.46;49.85;100415.16;215556;1292;138172;-85
2023/08/24 16:02:15;;;;;;;8.40;2.80;;;;;;;27.43;49.19;100414.14;215053;1289;141282;-86
2023/08/24 16:07:15;;;;;;;10.30;3.20;;;;;;;27.29;48.17;100420.36;215429;1288;138154;-87
2023/08/24 16:12:16;;;;;;;4.70;2.70;;;;;;;27.19;48.13;100420.87;214794;1292;141727;-86
2023/08/24 16:17:16;;;;;;;8.10;3.00;;;;;;;27.13;48.83;100420.49;215389;1289;138381;-85
2023/08/24 16:22:16;;;;;;;6.40;2.70;;;;;;;27.09;48.51;100408.77;214701;1292;142578;-86
2023/08/24 16:27:17;;;;;;;7.00;2.30;;;;;;;27.06;50.82;100407.20;215140;1289;138006;-85
2023/08/24 16:33:03;;;;;;;7.30;2.60;;;;;;;27.00;51.10;100410.22;215099;1291;141403;-85
2023/08/24 16:37:39;;;;;;;7.50;2.30;;;;;;;26.90;51.67;100412.84;215243;1289;138148;-85
2023/08/24 16:42:45;;;;;;;11.30;3.00;;;;;;;26.86;50.40;100407.08;214542;1294;140105;-86
2023/08/24 16:47:46;;;;;;;7.90;2.60;;;;;;;26.84;50.16;100410.67;215278;1289;138171;-87
2023/08/24 16:52:47;;;;;;;6.00;2.80;;;;;;;26.78;48.92;100417.16;215012;1289;140022;-86
2023/08/24 16:57:49;;;;;;;6.10;2.80;;;;;;;26.70;49.06;100411.21;215329;1289;138578;-86
2023/08/24 17:02:49;;;;;;;9.50;3.00;;;;;;;26.61;49.86;100410.19;214736;1289;140771;-87
2023/08/24 17:08:04;;;;;;;7.30;2.80;;;;;;;26.54;50.22;100412.90;215248;1289;138002;-85
2023/08/24 17:13:05;;;;;;;6.00;2.60;;;;;;;26.40;50.71;100411.81;214950;1290;141431;-86
2023/08/24 17:18:05;;;;;;;4.50;2.80;;;;;;;26.28;51.68;100409.70;215323;1289;138600;-85
2023/08/24 17:23:06;;;;;;;4.70;2.70;;;;;;;26.17;53.34;100413.39;215138;1289;141523;-85
2023/08/24 17:28:06;;;;;;;5.50;2.90;;;;;;;25.97;54.34;100405.73;215860;1294;137939;-86
2023/08/24 17:33:07;;;;;;;5.50;2.70;;;;;;;25.77;55.72;100397.73;214764;1289;140904;-84
2023/08/24 17:38:07;;;;;;;6.60;2.90;;;;;;;25.57;56.76;100392.95;216656;1292;97848;-85
2023/08/24 17:43:08;;;;;;;9.40;3.30;;;;;;;25.40;57.49;100392.77;214763;1291;139677;-85
2023/08/24 17:48:08;;;;;;;9.10;3.00;;;;;;;25.24;58.38;100399.52;215071;1292;138102;-83
2023/08/24 17:53:08;;;;;;;7.40;3.30;;;;;;;25.02;59.08;100403.98;214856;1292;140520;-86
2023/08/24 17:58:09;;;;;;;9.90;2.80;;;;;;;24.77;59.86;100413.31;215374;1293;139480;-86
2023/08/24 18:03:09;;;;;;;9.20;3.50;;;;;;;24.53;60.85;100417.73;214764;1294;140132;-86
2023/08/24 18:08:10;;;;;;;8.40;3.60;;;;;;;24.27;61.79;100419.95;215383;1289;98553;-86
2023/08/24 18:13:13;;;;;;;7.90;4.00;;;;;;;24.00;62.67;100422.46;214890;1289;141988;-85
2023/08/24 18:18:14;;;;;;;8.80;3.50;;;;;;;23.78;63.66;100422.04;215526;1289;138174;-85
2023/08/24 18:23:14;;;;;;;11.60;3.80;;;;;;;23.64;64.52;100423.36;214399;1291;139536;-85
2023/08/24 18:28:15;;;;;;;8.40;3.30;;;;;;;23.40;65.75;100418.84;215202;1293;138388;-85
2023/08/24 18:33:15;;;;;;;6.60;3.60;;;;;;;23.22;66.69;100422.06;214733;1292;139747;-85
2023/08/24 18:38:15;;;;;;;8.60;3.70;;;;;;;23.07;67.65;100415.30;215361;1292;97902;-84
2023/08/24 18:43:16;;;;;;;9.60;3.70;;;;;;;22.85;68.82;100411.43;214899;1294;139118;-84
2023/08/24 18:48:16;;;;;;;7.10;3.70;;;;;;;22.67;69.72;100411.02;215311;1288;138974;-85
2023/08/24 18:53:17;;;;;;;11.90;4.50;;;;;;;22.46;71.03;100410.36;214891;1293;139018;-84
2023/08/24 18:58:17;;;;;;;11.10;4.30;;;;;;;22.26;71.64;100407.02;215176;1292;138321;-84
2023/08/24 19:03:18;;;;;;;10.20;4.10;;;;;;;22.13;72.17;100398.12;214925;1294;140581;-85
2023/08/24 19:08:19;;;;;;;11.40;3.90;;;;;;;22.06;72.71;100394.20;215251;1289;97861;-85
2023/08/24 19:13:19;;;;;;;9.10;4.00;;;;;;;21.95;73.03;100386.45;214760;1294;141437;-84
2023/08/24 19:18:20;;;;;;;7.80;4.20;;;;;;;21.89;72.90;100376.81;215206;1292;139012;-85
2023/08/24 19:23:20;;;;;;;7.70;4.10;;;;;;;21.82;74.40;100372.83;214732;1289;140617;-85
2023/08/24 19:28:21;;;;;;;9.50;4.10;;;;;;;21.71;74.59;100365.13;215345;1294;139060;-85
2023/08/24 19:33:22;;;;;;;10.10;3.90;;;;;;;21.54;75.30;100361.09;214407;1294;141070;-85
2023/08/24 19:38:22;;;;;;;7.90;3.90;;;;;;;21.40;76.05;100348.19;215151;1292;97879;-85
2023/08/24 19:43:23;;;;;;;9.90;4.40;;;;;;;21.26;76.36;100335.15;214772;1294;140419;-85
2023/08/24 19:48:23;;;;;;;7.40;3.90;;;;;;;21.20;76.90;100332.25;215246;1292;138779;-85
2023/08/24 19:53:24;;;;;;;8.40;4.40;;;;;;;21.11;77.32;100331.02;214767;1290;140188;-86
2023/08/24 19:58:24;;;;;;;7.90;4.40;;;;;;;21.04;77.67;100330.63;215159;1290;138815;-84
2023/08/24 20:03:25;;;;;;;9.60;4.00;;;;;;;20.96;77.75;100329.85;214548;1289;140557;-85
2023/08/24 20:08:28;;;;;;;9.70;4.50;;;;;;;20.88;78.00;100336.19;215524;1290;111726;-85
2023/08/24 20:13:29;;;;;;;13.10;5.60;;;;;;;20.75;78.41;100338.51;214605;1294;141832;-84
2023/08/24 20:18:31;;;;;;;10.10;5.20;;;;;;;20.62;78.97;100336.51;215277;1295;138846;-85
2023/08/24 20:23:35;;;;;;;14.00;6.10;;;;;;;20.51;79.39;100338.94;214774;1294;142251;-85
2023/08/24 20:28:39;;;;;;;9.50;5.30;;;;;;;20.39;80.24;100339.23;215600;1289;139036;-85
2023/08/24 20:33:40;;;;;;;9.90;5.20;;;;;;;20.27;80.26;100333.54;214535;1292;140407;-85
2023/08/24 20:38:40;;;;;;;10.90;5.60;;;;;;;20.20;80.69;100330.93;215329;1289;97845;-84
2023/08/24 20:43:41;;;;;;;11.00;5.90;;;;;;;20.14;81.21;100328.67;214960;1294;140645;-84
2023/08/24 20:48:41;;;;;;;13.10;6.40;;;;;;;20.06;81.73;100322.23;215468;1293;140275;-84
2023/08/24 20:53:42;;;;;;;12.20;6.20;;;;;;;19.98;81.93;100322.55;214953;1294;141820;-85
2023/08/24 20:58:44;;;;;;;10.90;5.50;;;;;;;19.90;82.55;100315.52;215144;1294;138877;-85
2023/08/24 21:03:45;;;;;;;15.80;6.60;;;;;;;19.83;83.03;100319.71;214618;1292;142274;-84
2023/08/24 21:08:45;;;;;;;11.00;6.30;;;;;;;19.78;83.20;100319.95;215184;1289;97879;-85
2023/08/24 21:13:46;;;;;;;11.50;6.50;;;;;;;19.73;83.61;100314.48;214381;1292;140510;-83
2023/08/24 21:18:46;;;;;;;12.00;6.00;;;;;;;19.68;83.76;100305.92;215342;1294;139712;-85
2023/08/24 21:23:47;;;;;;;12.10;6.90;;;;;;;19.63;84.49;100284.94;214996;1294;139855;-83
2023/08/24 21:28:48;;;;;;;14.30;6.90;;;;;;;19.57;83.90;100270.05;215285;1292;139620;-84
2023/08/24 21:33:48;;;;;;;12.80;6.30;;;;;;;19.53;83.55;100258.48;214670;1291;141556;-84
2023/08/24 21:38:48;;;;;;;13.20;6.90;;;;;;;19.50;83.07;100241.67;215384;1294;97822;-84
2023/08/24 21:43:49;;;;;;;18.70;9.60;;;;;;;19.48;83.19;100224.73;214494;1293;142096;-85
2023/08/24 21:48:49;;;;;;;16.10;7.70;;;;;;;19.46;83.00;100221.77;215333;1290;138893;-84
2023/08/24 21:53:50;;;;;;;14.10;7.60;;;;;;;19.44;83.31;100212.48;214647;1290;141012;-84
2023/08/24 21:58:50;;;;;;;20.30;7.50;;;;;;;19.42;83.48;100198.98;214892;1292;139495;-85
2023/08/24 22:03:51;;;;;;;15.50;8.10;;;;;;;19.40;83.47;100186.20;214692;1292;140284;-84
2023/08/24 22:08:51;;;;;;;16.80;7.90;;;;;;;19.37;83.75;100184.00;215088;1291;97887;-84
2023/08/24 22:13:52;;;;;;;13.40;6.70;;;;;;;19.33;83.76;100178.02;215123;1289;141183;-85
2023/08/24 22:18:54;;;;;;;17.90;8.70;;;;;;;19.30;84.19;100179.64;215350;1289;138713;-84
2023/08/24 22:23:55;;;;;;;18.90;7.40;;;;;;;19.26;84.53;100195.55;214712;1294;142203;-84
2023/08/24 22:28:56;;;;;;;19.10;7.60;;;;;;;19.22;84.81;100201.31;215192;1289;138938;-85
2023/08/24 22:33:56;;;;;;;13.80;7.50;;;;;;;19.18;85.36;100210.39;214724;1291;142048;-84
2023/08/24 22:38:57;;;;;;;13.90;7.00;;;;;;;19.14;85.62;100213.77;215566;1294;98002;-84
2023/08/24 22:43:57;;;;;;;13.40;6.10;;;;;;;19.09;85.71;100210.23;214817;1289;140315;-84
2023/08/24 22:49:00;;;;;;;13.20;6.00;;;;;;;19.03;86.13;100208.56;215329;1294;138683;-84
2023/08/24 22:54:02;;;;;;;13.10;6.40;;;;;;;18.99;86.40;100205.98;215079;1291;246109;-84
2023/08/24 22:59:03;;;;;;;14.30;7.10;;;;;;;18.96;86.37;100208.05;215309;1289;211156;-85
2023/08/24 23:04:04;;;;;;;12.20;6.40;;;;;;;18.93;86.40;100204.77;215788;1288;138972;-81
2023/08/24 23:09:05;;;;;;;12.70;6.60;;;;;;;18.92;86.01;100196.77;215271;1289;165136;-84
2023/08/24 23:14:05;;;;;;;10.90;5.30;;;;;;;18.91;85.75;100196.30;215656;1289;139553;-83
2023/08/24 23:19:05;;;;;;;10.50;6.00;;;;;;;18.93;85.31;100204.54;215186;1286;140869;-85
2023/08/24 23:24:07;;;;;;;10.90;5.30;;;;;;;18.95;85.54;100213.09;215611;1291;139514;-85
2023/08/24 23:29:07;;;;;;;11.10;5.70;;;;;;;18.99;85.49;100216.25;217910;1286;141052;-85
2023/08/24 23:34:08;;;;;;;13.30;6.20;;;;;;;19.03;85.42;100212.16;216109;1286;139177;-84
2023/08/24 23:39:08;;;;;;;10.40;5.50;;;;;;;19.08;85.45;100206.29;215410;1286;143808;-84
2023/08/24 23:44:09;;;;;;;12.10;5.30;;;;;;;19.12;85.15;100196.52;215829;1288;105041;-84
2023/08/24 23:49:09;;;;;;;9.80;5.00;;;;;;;19.14;85.04;100185.09;215540;1288;140517;-85
2023/08/24 23:54:10;;;;;;;13.90;6.50;;;;;;;19.15;84.88;100192.47;215956;1288;138875;-84
2023/08/24 23:59:10;;;;;;;9.60;4.90;;;;;;;19.16;84.71;100196.98;215569;1286;142259;-84
